sensor_id;sensor_type;location;lat;lon;timestamp;P1;durP1;ratioP1;P2;durP2;ratioP2
76848;SDS011;65814;51.134;16.980;2023-04-16T00:01:40;31.00;;;17.80;;
76848;SDS011;65814;51.134;16.980;2023-04-16T00:04:08;33.40;;;19.20;;
76848;SDS011;65814;51.134;16.980;2023-04-16T00:06:37;29.00;;;17.40;;
76848;SDS011;65814;51.134;16.980;2023-04-16T00:09:05;27.90;;;18.50;;
76848;SDS011;65814;51.134;16.980;2023-04-16T00:11:36;29.50;;;19.20;;
76848;SDS011;65814;51.134;16.980;2023-04-16T00:14:04;30.10;;;18.70;;
76848;SDS011;65814;51.134;16.980;2023-04-16T00:16:32;27.60;;;17.00;;
76848;SDS011;65814;51.134;16.980;2023-04-16T00:19:00;29.00;;;18.60;;
76848;SDS011;65814;51.134;16.980;2023-04-16T00:21:28;29.70;;;20.20;;
76848;SDS011;65814;51.134;16.980;2023-04-16T00:23:56;35.10;;;22.20;;
76848;SDS011;65814;51.134;16.980;2023-04-16T00:26:24;35.30;;;21.30;;
76848;SDS011;65814;51.134;16.980;2023-04-16T00:28:52;31.30;;;19.80;;
76848;SDS011;65814;51.134;16.980;2023-04-16T00:31:29;41.50;;;22.40;;
76848;SDS011;65814;51.134;16.980;2023-04-16T00:33:58;37.20;;;24.60;;
76848;SDS011;65814;51.134;16.980;2023-04-16T00:36:27;33.60;;;22.10;;
76848;SDS011;65814;51.134;16.980;2023-04-16T00:38:55;36.60;;;22.30;;
76848;SDS011;65814;51.134;16.980;2023-04-16T00:41:26;35.20;;;22.60;;
76848;SDS011;65814;51.134;16.980;2023-04-16T00:43:54;36.50;;;20.90;;
76848;SDS011;65814;51.134;16.980;2023-04-16T00:46:22;40.60;;;24.60;;
76848;SDS011;65814;51.134;16.980;2023-04-16T00:48:51;44.90;;;26.70;;
76848;SDS011;65814;51.134;16.980;2023-04-16T00:51:20;39.20;;;24.50;;
76848;SDS011;65814;51.134;16.980;2023-04-16T00:53:49;44.00;;;28.40;;
76848;SDS011;65814;51.134;16.980;2023-04-16T00:56:19;43.20;;;25.20;;
76848;SDS011;65814;51.134;16.980;2023-04-16T00:58:53;42.30;;;27.00;;
76848;SDS011;65814;51.134;16.980;2023-04-16T01:01:24;43.10;;;26.00;;
76848;SDS011;65814;51.134;16.980;2023-04-16T01:03:52;39.50;;;23.80;;
76848;SDS011;65814;51.134;16.980;2023-04-16T01:06:21;38.10;;;22.60;;
76848;SDS011;65814;51.134;16.980;2023-04-16T01:08:49;35.70;;;25.80;;
76848;SDS011;65814;51.134;16.980;2023-04-16T01:11:19;38.20;;;23.80;;
76848;SDS011;65814;51.134;16.980;2023-04-16T01:13:48;33.30;;;21.50;;
76848;SDS011;65814;51.134;16.980;2023-04-16T01:16:16;34.90;;;20.00;;
76848;SDS011;65814;51.134;16.980;2023-04-16T01:18:44;31.50;;;20.00;;
76848;SDS011;65814;51.134;16.980;2023-04-16T01:21:12;30.90;;;19.50;;
76848;SDS011;65814;51.134;16.980;2023-04-16T01:23:40;34.20;;;20.60;;
76848;SDS011;65814;51.134;16.980;2023-04-16T01:26:08;28.50;;;17.20;;
76848;SDS011;65814;51.134;16.980;2023-04-16T01:28:43;36.00;;;21.20;;
76848;SDS011;65814;51.134;16.980;2023-04-16T01:31:11;34.20;;;18.70;;
76848;SDS011;65814;51.134;16.980;2023-04-16T01:33:39;30.90;;;18.70;;
76848;SDS011;65814;51.134;16.980;2023-04-16T01:36:07;34.70;;;19.00;;
76848;SDS011;65814;51.134;16.980;2023-04-16T01:38:38;29.80;;;17.90;;
76848;SDS011;65814;51.134;16.980;2023-04-16T01:41:06;29.00;;;19.20;;
76848;SDS011;65814;51.134;16.980;2023-04-16T01:43:34;27.80;;;18.40;;
76848;SDS011;65814;51.134;16.980;2023-04-16T01:46:13;33.10;;;20.70;;
76848;SDS011;65814;51.134;16.980;2023-04-16T01:48:43;32.30;;;20.90;;
76848;SDS011;65814;51.134;16.980;2023-04-16T01:51:11;36.80;;;20.10;;
76848;SDS011;65814;51.134;16.980;2023-04-16T01:53:38;32.10;;;19.10;;
76848;SDS011;65814;51.134;16.980;2023-04-16T01:56:06;31.70;;;18.20;;
76848;SDS011;65814;51.134;16.980;2023-04-16T01:58:40;29.30;;;19.70;;
76848;SDS011;65814;51.134;16.980;2023-04-16T02:01:09;32.60;;;20.10;;
76848;SDS011;65814;51.134;16.980;2023-04-16T02:03:37;31.10;;;18.90;;
76848;SDS011;65814;51.134;16.980;2023-04-16T02:06:05;36.00;;;20.20;;
76848;SDS011;65814;51.134;16.980;2023-04-16T02:08:33;29.10;;;17.00;;
76848;SDS011;65814;51.134;16.980;2023-04-16T02:11:01;34.00;;;19.40;;
76848;SDS011;65814;51.134;16.980;2023-04-16T02:13:29;32.00;;;19.70;;
76848;SDS011;65814;51.134;16.980;2023-04-16T02:15:57;29.20;;;18.20;;
76848;SDS011;65814;51.134;16.980;2023-04-16T02:18:25;30.80;;;20.50;;
76848;SDS011;65814;51.134;16.980;2023-04-16T02:20:53;27.90;;;19.40;;
76848;SDS011;65814;51.134;16.980;2023-04-16T02:23:21;27.80;;;19.10;;
76848;SDS011;65814;51.134;16.980;2023-04-16T02:25:48;28.70;;;18.90;;
76848;SDS011;65814;51.134;16.980;2023-04-16T02:28:17;28.50;;;18.10;;
76848;SDS011;65814;51.134;16.980;2023-04-16T02:30:45;31.40;;;19.60;;
76848;SDS011;65814;51.134;16.980;2023-04-16T02:33:12;35.60;;;18.30;;
76848;SDS011;65814;51.134;16.980;2023-04-16T02:35:40;35.50;;;19.40;;
76848;SDS011;65814;51.134;16.980;2023-04-16T02:38:09;32.60;;;19.70;;
76848;SDS011;65814;51.134;16.980;2023-04-16T02:40:37;32.70;;;19.80;;
76848;SDS011;65814;51.134;16.980;2023-04-16T02:43:05;30.90;;;18.70;;
76848;SDS011;65814;51.134;16.980;2023-04-16T02:45:33;34.20;;;19.40;;
76848;SDS011;65814;51.134;16.980;2023-04-16T02:48:01;36.30;;;18.80;;
76848;SDS011;65814;51.134;16.980;2023-04-16T02:50:29;37.90;;;20.60;;
76848;SDS011;65814;51.134;16.980;2023-04-16T02:52:57;36.60;;;21.00;;
76848;SDS011;65814;51.134;16.980;2023-04-16T02:55:24;32.20;;;18.30;;
76848;SDS011;65814;51.134;16.980;2023-04-16T02:57:53;31.70;;;17.90;;
76848;SDS011;65814;51.134;16.980;2023-04-16T03:00:22;36.80;;;19.20;;
76848;SDS011;65814;51.134;16.980;2023-04-16T03:02:50;33.70;;;19.40;;
76848;SDS011;65814;51.134;16.980;2023-04-16T03:05:18;26.50;;;16.60;;
76848;SDS011;65814;51.134;16.980;2023-04-16T03:07:46;30.20;;;18.00;;
76848;SDS011;65814;51.134;16.980;2023-04-16T03:10:14;28.70;;;18.20;;
76848;SDS011;65814;51.134;16.980;2023-04-16T03:12:41;28.90;;;18.90;;
76848;SDS011;65814;51.134;16.980;2023-04-16T03:15:09;30.30;;;18.40;;
76848;SDS011;65814;51.134;16.980;2023-04-16T03:17:38;28.20;;;18.00;;
76848;SDS011;65814;51.134;16.980;2023-04-16T03:20:06;28.00;;;17.30;;
76848;SDS011;65814;51.134;16.980;2023-04-16T03:22:34;29.40;;;16.10;;
76848;SDS011;65814;51.134;16.980;2023-04-16T03:25:03;29.60;;;17.90;;
76848;SDS011;65814;51.134;16.980;2023-04-16T03:27:31;32.80;;;16.20;;
76848;SDS011;65814;51.134;16.980;2023-04-16T03:30:00;28.20;;;18.60;;
76848;SDS011;65814;51.134;16.980;2023-04-16T03:32:31;30.90;;;18.80;;
76848;SDS011;65814;51.134;16.980;2023-04-16T03:34:59;29.50;;;18.60;;
76848;SDS011;65814;51.134;16.980;2023-04-16T03:37:27;27.20;;;16.10;;
76848;SDS011;65814;51.134;16.980;2023-04-16T03:39:55;31.20;;;18.80;;
76848;SDS011;65814;51.134;16.980;2023-04-16T03:42:23;26.80;;;17.20;;
76848;SDS011;65814;51.134;16.980;2023-04-16T03:44:51;28.70;;;18.40;;
76848;SDS011;65814;51.134;16.980;2023-04-16T03:47:20;33.60;;;16.70;;
76848;SDS011;65814;51.134;16.980;2023-04-16T03:49:48;28.40;;;15.90;;
76848;SDS011;65814;51.134;16.980;2023-04-16T03:52:16;32.20;;;17.60;;
76848;SDS011;65814;51.134;16.980;2023-04-16T03:54:44;25.50;;;15.60;;
76848;SDS011;65814;51.134;16.980;2023-04-16T03:57:11;29.40;;;17.10;;
76848;SDS011;65814;51.134;16.980;2023-04-16T03:59:39;28.60;;;17.20;;
76848;SDS011;65814;51.134;16.980;2023-04-16T04:02:07;29.90;;;18.50;;
76848;SDS011;65814;51.134;16.980;2023-04-16T04:04:35;27.40;;;17.70;;
76848;SDS011;65814;51.134;16.980;2023-04-16T04:07:03;29.40;;;15.80;;
76848;SDS011;65814;51.134;16.980;2023-04-16T04:09:31;28.20;;;18.30;;
76848;SDS011;65814;51.134;16.980;2023-04-16T04:12:00;28.40;;;16.60;;
76848;SDS011;65814;51.134;16.980;2023-04-16T04:14:28;30.00;;;17.40;;
76848;SDS011;65814;51.134;16.980;2023-04-16T04:16:56;31.10;;;17.90;;
76848;SDS011;65814;51.134;16.980;2023-04-16T04:19:26;29.20;;;16.20;;
76848;SDS011;65814;51.134;16.980;2023-04-16T04:21:53;29.30;;;16.40;;
76848;SDS011;65814;51.134;16.980;2023-04-16T04:24:21;26.80;;;16.50;;
76848;SDS011;65814;51.134;16.980;2023-04-16T04:26:49;28.30;;;16.60;;
76848;SDS011;65814;51.134;16.980;2023-04-16T04:29:17;25.60;;;15.00;;
76848;SDS011;65814;51.134;16.980;2023-04-16T04:31:45;25.30;;;16.50;;
76848;SDS011;65814;51.134;16.980;2023-04-16T04:34:13;27.20;;;17.00;;
76848;SDS011;65814;51.134;16.980;2023-04-16T04:36:41;29.90;;;17.20;;
76848;SDS011;65814;51.134;16.980;2023-04-16T04:39:09;27.90;;;17.80;;
76848;SDS011;65814;51.134;16.980;2023-04-16T04:41:37;32.40;;;17.20;;
76848;SDS011;65814;51.134;16.980;2023-04-16T04:44:05;28.60;;;17.30;;
76848;SDS011;65814;51.134;16.980;2023-04-16T04:46:33;32.40;;;15.90;;
76848;SDS011;65814;51.134;16.980;2023-04-16T04:49:01;37.10;;;19.40;;
76848;SDS011;65814;51.134;16.980;2023-04-16T04:51:29;35.40;;;19.40;;
76848;SDS011;65814;51.134;16.980;2023-04-16T04:53:57;31.50;;;18.50;;
76848;SDS011;65814;51.134;16.980;2023-04-16T04:56:25;27.30;;;17.40;;
76848;SDS011;65814;51.134;16.980;2023-04-16T04:58:54;31.10;;;17.30;;
76848;SDS011;65814;51.134;16.980;2023-04-16T05:01:22;31.90;;;18.20;;
76848;SDS011;65814;51.134;16.980;2023-04-16T05:03:50;31.30;;;19.80;;
76848;SDS011;65814;51.134;16.980;2023-04-16T05:06:18;30.20;;;18.10;;
76848;SDS011;65814;51.134;16.980;2023-04-16T05:08:45;30.20;;;17.20;;
76848;SDS011;65814;51.134;16.980;2023-04-16T05:11:13;32.60;;;19.90;;
76848;SDS011;65814;51.134;16.980;2023-04-16T05:13:41;33.30;;;15.90;;
76848;SDS011;65814;51.134;16.980;2023-04-16T05:16:09;33.70;;;18.10;;
76848;SDS011;65814;51.134;16.980;2023-04-16T05:18:37;32.10;;;18.20;;
76848;SDS011;65814;51.134;16.980;2023-04-16T05:21:05;33.10;;;18.50;;
76848;SDS011;65814;51.134;16.980;2023-04-16T05:23:33;36.30;;;19.20;;
76848;SDS011;65814;51.134;16.980;2023-04-16T05:26:04;32.80;;;19.50;;
76848;SDS011;65814;51.134;16.980;2023-04-16T05:28:32;35.60;;;21.60;;
76848;SDS011;65814;51.134;16.980;2023-04-16T05:31:00;49.00;;;21.80;;
76848;SDS011;65814;51.134;16.980;2023-04-16T05:33:28;33.60;;;20.50;;
76848;SDS011;65814;51.134;16.980;2023-04-16T05:35:56;37.00;;;20.40;;
76848;SDS011;65814;51.134;16.980;2023-04-16T05:38:24;37.30;;;21.90;;
76848;SDS011;65814;51.134;16.980;2023-04-16T05:40:52;34.30;;;19.90;;
76848;SDS011;65814;51.134;16.980;2023-04-16T05:43:20;32.30;;;17.90;;
76848;SDS011;65814;51.134;16.980;2023-04-16T05:45:48;38.40;;;21.90;;
76848;SDS011;65814;51.134;16.980;2023-04-16T05:48:16;38.00;;;22.00;;
76848;SDS011;65814;51.134;16.980;2023-04-16T05:50:44;34.10;;;21.00;;
76848;SDS011;65814;51.134;16.980;2023-04-16T05:53:12;34.20;;;19.40;;
76848;SDS011;65814;51.134;16.980;2023-04-16T05:55:40;39.20;;;20.50;;
76848;SDS011;65814;51.134;16.980;2023-04-16T05:58:08;34.00;;;19.60;;
76848;SDS011;65814;51.134;16.980;2023-04-16T06:00:36;40.60;;;20.30;;
76848;SDS011;65814;51.134;16.980;2023-04-16T06:03:04;43.20;;;22.20;;
76848;SDS011;65814;51.134;16.980;2023-04-16T06:05:33;34.40;;;21.90;;
76848;SDS011;65814;51.134;16.980;2023-04-16T06:08:00;38.50;;;20.20;;
76848;SDS011;65814;51.134;16.980;2023-04-16T06:10:28;35.40;;;19.50;;
76848;SDS011;65814;51.134;16.980;2023-04-16T06:12:57;39.70;;;22.10;;
76848;SDS011;65814;51.134;16.980;2023-04-16T06:15:24;40.10;;;20.60;;
76848;SDS011;65814;51.134;16.980;2023-04-16T06:17:53;40.20;;;21.80;;
76848;SDS011;65814;51.134;16.980;2023-04-16T06:20:21;38.70;;;22.70;;
76848;SDS011;65814;51.134;16.980;2023-04-16T06:22:49;38.60;;;21.60;;
76848;SDS011;65814;51.134;16.980;2023-04-16T06:25:16;38.60;;;21.90;;
76848;SDS011;65814;51.134;16.980;2023-04-16T06:27:44;39.90;;;22.60;;
76848;SDS011;65814;51.134;16.980;2023-04-16T06:30:13;38.00;;;22.30;;
76848;SDS011;65814;51.134;16.980;2023-04-16T06:32:42;37.70;;;21.20;;
76848;SDS011;65814;51.134;16.980;2023-04-16T06:35:11;46.30;;;21.90;;
76848;SDS011;65814;51.134;16.980;2023-04-16T06:37:39;41.50;;;23.00;;
76848;SDS011;65814;51.134;16.980;2023-04-16T06:40:07;45.70;;;22.50;;
76848;SDS011;65814;51.134;16.980;2023-04-16T06:42:35;42.90;;;21.10;;
76848;SDS011;65814;51.134;16.980;2023-04-16T06:45:03;40.00;;;22.30;;
76848;SDS011;65814;51.134;16.980;2023-04-16T06:47:32;42.80;;;24.40;;
76848;SDS011;65814;51.134;16.980;2023-04-16T06:50:00;45.60;;;24.20;;
76848;SDS011;65814;51.134;16.980;2023-04-16T06:52:28;44.30;;;22.90;;
76848;SDS011;65814;51.134;16.980;2023-04-16T06:54:56;42.10;;;22.20;;
76848;SDS011;65814;51.134;16.980;2023-04-16T06:57:26;43.70;;;23.30;;
76848;SDS011;65814;51.134;16.980;2023-04-16T06:59:54;42.30;;;22.80;;
76848;SDS011;65814;51.134;16.980;2023-04-16T07:02:22;39.20;;;21.40;;
76848;SDS011;65814;51.134;16.980;2023-04-16T07:04:50;50.10;;;23.20;;
76848;SDS011;65814;51.134;16.980;2023-04-16T07:07:19;40.40;;;21.70;;
76848;SDS011;65814;51.134;16.980;2023-04-16T07:09:47;45.90;;;23.10;;
76848;SDS011;65814;51.134;16.980;2023-04-16T07:12:15;45.70;;;24.40;;
76848;SDS011;65814;51.134;16.980;2023-04-16T07:14:43;44.40;;;23.30;;
76848;SDS011;65814;51.134;16.980;2023-04-16T07:17:11;44.60;;;22.40;;
76848;SDS011;65814;51.134;16.980;2023-04-16T07:19:39;46.10;;;22.90;;
76848;SDS011;65814;51.134;16.980;2023-04-16T07:22:07;41.40;;;23.60;;
76848;SDS011;65814;51.134;16.980;2023-04-16T07:24:35;41.70;;;22.00;;
76848;SDS011;65814;51.134;16.980;2023-04-16T07:27:03;38.50;;;20.40;;
76848;SDS011;65814;51.134;16.980;2023-04-16T07:29:31;38.80;;;20.60;;
76848;SDS011;65814;51.134;16.980;2023-04-16T07:31:59;43.00;;;21.30;;
76848;SDS011;65814;51.134;16.980;2023-04-16T07:34:27;40.70;;;20.50;;
76848;SDS011;65814;51.134;16.980;2023-04-16T07:36:55;42.50;;;22.80;;
76848;SDS011;65814;51.134;16.980;2023-04-16T07:39:23;40.10;;;21.40;;
76848;SDS011;65814;51.134;16.980;2023-04-16T07:41:52;41.10;;;23.10;;
76848;SDS011;65814;51.134;16.980;2023-04-16T07:44:20;41.10;;;22.30;;
76848;SDS011;65814;51.134;16.980;2023-04-16T07:46:48;35.10;;;20.00;;
76848;SDS011;65814;51.134;16.980;2023-04-16T07:49:16;40.00;;;21.40;;
76848;SDS011;65814;51.134;16.980;2023-04-16T07:51:44;40.70;;;21.90;;
76848;SDS011;65814;51.134;16.980;2023-04-16T07:54:12;45.60;;;22.10;;
76848;SDS011;65814;51.134;16.980;2023-04-16T07:56:39;36.30;;;19.90;;
76848;SDS011;65814;51.134;16.980;2023-04-16T07:59:07;40.50;;;21.10;;
76848;SDS011;65814;51.134;16.980;2023-04-16T08:01:51;37.80;;;19.30;;
76848;SDS011;65814;51.134;16.980;2023-04-16T08:04:20;38.70;;;19.80;;
76848;SDS011;65814;51.134;16.980;2023-04-16T08:06:53;35.70;;;20.20;;
76848;SDS011;65814;51.134;16.980;2023-04-16T08:09:21;35.20;;;19.80;;
76848;SDS011;65814;51.134;16.980;2023-04-16T08:11:50;40.00;;;21.00;;
76848;SDS011;65814;51.134;16.980;2023-04-16T08:14:18;34.30;;;19.60;;
76848;SDS011;65814;51.134;16.980;2023-04-16T08:16:46;35.90;;;20.80;;
76848;SDS011;65814;51.134;16.980;2023-04-16T08:19:14;35.70;;;20.80;;
76848;SDS011;65814;51.134;16.980;2023-04-16T08:21:45;34.00;;;20.10;;
76848;SDS011;65814;51.134;16.980;2023-04-16T08:24:13;33.00;;;18.60;;
76848;SDS011;65814;51.134;16.980;2023-04-16T08:26:41;34.90;;;20.20;;
76848;SDS011;65814;51.134;16.980;2023-04-16T08:29:09;34.10;;;19.60;;
76848;SDS011;65814;51.134;16.980;2023-04-16T08:31:37;35.80;;;20.10;;
76848;SDS011;65814;51.134;16.980;2023-04-16T08:34:06;34.10;;;18.80;;
76848;SDS011;65814;51.134;16.980;2023-04-16T08:36:34;34.20;;;19.30;;
76848;SDS011;65814;51.134;16.980;2023-04-16T08:39:02;30.70;;;17.60;;
76848;SDS011;65814;51.134;16.980;2023-04-16T08:41:31;33.20;;;19.10;;
76848;SDS011;65814;51.134;16.980;2023-04-16T08:43:59;30.50;;;17.90;;
76848;SDS011;65814;51.134;16.980;2023-04-16T08:46:37;28.70;;;16.30;;
76848;SDS011;65814;51.134;16.980;2023-04-16T08:49:07;29.00;;;16.20;;
76848;SDS011;65814;51.134;16.980;2023-04-16T08:51:36;27.00;;;14.90;;
76848;SDS011;65814;51.134;16.980;2023-04-16T08:54:10;24.50;;;15.10;;
76848;SDS011;65814;51.134;16.980;2023-04-16T08:56:39;23.60;;;14.30;;
76848;SDS011;65814;51.134;16.980;2023-04-16T08:59:09;19.00;;;12.70;;
76848;SDS011;65814;51.134;16.980;2023-04-16T09:01:38;16.40;;;10.50;;
76848;SDS011;65814;51.134;16.980;2023-04-16T09:04:08;16.20;;;10.50;;
76848;SDS011;65814;51.134;16.980;2023-04-16T09:06:36;16.30;;;10.60;;
76848;SDS011;65814;51.134;16.980;2023-04-16T09:09:05;17.90;;;10.30;;
76848;SDS011;65814;51.134;16.980;2023-04-16T09:11:33;17.80;;;11.40;;
76848;SDS011;65814;51.134;16.980;2023-04-16T09:14:01;18.60;;;11.40;;
76848;SDS011;65814;51.134;16.980;2023-04-16T09:16:32;18.40;;;11.10;;
76848;SDS011;65814;51.134;16.980;2023-04-16T09:19:00;17.90;;;10.10;;
76848;SDS011;65814;51.134;16.980;2023-04-16T09:21:28;14.80;;;10.20;;
76848;SDS011;65814;51.134;16.980;2023-04-16T09:23:56;15.90;;;11.10;;
76848;SDS011;65814;51.134;16.980;2023-04-16T09:26:24;19.50;;;12.20;;
76848;SDS011;65814;51.134;16.980;2023-04-16T09:28:53;16.90;;;10.60;;
76848;SDS011;65814;51.134;16.980;2023-04-16T09:31:21;19.30;;;10.70;;
76848;SDS011;65814;51.134;16.980;2023-04-16T09:34:03;16.90;;;12.20;;
76848;SDS011;65814;51.134;16.980;2023-04-16T09:36:32;19.50;;;11.60;;
76848;SDS011;65814;51.134;16.980;2023-04-16T09:39:01;16.20;;;10.40;;
76848;SDS011;65814;51.134;16.980;2023-04-16T09:41:31;15.40;;;10.50;;
76848;SDS011;65814;51.134;16.980;2023-04-16T09:44:03;16.80;;;10.40;;
76848;SDS011;65814;51.134;16.980;2023-04-16T09:46:35;14.50;;;10.40;;
76848;SDS011;65814;51.134;16.980;2023-04-16T09:49:07;14.80;;;9.70;;
76848;SDS011;65814;51.134;16.980;2023-04-16T09:51:39;17.40;;;10.10;;
76848;SDS011;65814;51.134;16.980;2023-04-16T09:54:09;14.80;;;8.60;;
76848;SDS011;65814;51.134;16.980;2023-04-16T09:56:40;13.60;;;8.60;;
76848;SDS011;65814;51.134;16.980;2023-04-16T09:59:19;14.90;;;9.50;;
76848;SDS011;65814;51.134;16.980;2023-04-16T10:01:48;11.90;;;8.00;;
76848;SDS011;65814;51.134;16.980;2023-04-16T10:04:17;12.20;;;7.80;;
76848;SDS011;65814;51.134;16.980;2023-04-16T10:07:00;14.50;;;8.80;;
76848;SDS011;65814;51.134;16.980;2023-04-16T10:09:38;14.20;;;9.30;;
76848;SDS011;65814;51.134;16.980;2023-04-16T10:12:07;12.80;;;8.50;;
76848;SDS011;65814;51.134;16.980;2023-04-16T10:14:35;12.40;;;6.90;;
76848;SDS011;65814;51.134;16.980;2023-04-16T10:17:03;13.10;;;7.70;;
76848;SDS011;65814;51.134;16.980;2023-04-16T10:19:33;11.90;;;7.30;;
76848;SDS011;65814;51.134;16.980;2023-04-16T10:22:02;11.70;;;8.30;;
76848;SDS011;65814;51.134;16.980;2023-04-16T10:24:31;10.10;;;6.70;;
76848;SDS011;65814;51.134;16.980;2023-04-16T10:27:00;9.70;;;5.60;;
76848;SDS011;65814;51.134;16.980;2023-04-16T10:29:28;9.00;;;5.10;;
76848;SDS011;65814;51.134;16.980;2023-04-16T10:31:57;7.60;;;5.00;;
76848;SDS011;65814;51.134;16.980;2023-04-16T10:34:25;7.50;;;5.00;;
76848;SDS011;65814;51.134;16.980;2023-04-16T10:36:54;7.90;;;4.30;;
76848;SDS011;65814;51.134;16.980;2023-04-16T10:39:23;7.70;;;4.60;;
76848;SDS011;65814;51.134;16.980;2023-04-16T10:42:08;6.60;;;3.50;;
76848;SDS011;65814;51.134;16.980;2023-04-16T10:44:38;5.50;;;2.60;;
76848;SDS011;65814;51.134;16.980;2023-04-16T10:47:12;4.30;;;3.40;;
76848;SDS011;65814;51.134;16.980;2023-04-16T10:49:40;6.00;;;3.60;;
76848;SDS011;65814;51.134;16.980;2023-04-16T10:52:10;6.10;;;4.10;;
76848;SDS011;65814;51.134;16.980;2023-04-16T10:54:45;6.60;;;3.90;;
76848;SDS011;65814;51.134;16.980;2023-04-16T10:57:15;4.80;;;3.10;;
76848;SDS011;65814;51.134;16.980;2023-04-16T10:59:45;4.80;;;3.60;;
76848;SDS011;65814;51.134;16.980;2023-04-16T11:02:16;6.40;;;3.30;;
76848;SDS011;65814;51.134;16.980;2023-04-16T11:04:46;7.50;;;4.30;;
76848;SDS011;65814;51.134;16.980;2023-04-16T11:07:19;5.80;;;4.60;;
76848;SDS011;65814;51.134;16.980;2023-04-16T11:09:54;8.50;;;5.40;;
76848;SDS011;65814;51.134;16.980;2023-04-16T11:12:32;7.40;;;4.50;;
76848;SDS011;65814;51.134;16.980;2023-04-16T11:15:07;6.90;;;4.50;;
76848;SDS011;65814;51.134;16.980;2023-04-16T11:17:39;7.60;;;3.90;;
76848;SDS011;65814;51.134;16.980;2023-04-16T11:20:09;7.00;;;4.30;;
76848;SDS011;65814;51.134;16.980;2023-04-16T11:22:47;7.20;;;4.50;;
76848;SDS011;65814;51.134;16.980;2023-04-16T11:25:23;7.50;;;4.60;;
76848;SDS011;65814;51.134;16.980;2023-04-16T11:27:52;5.90;;;4.10;;
76848;SDS011;65814;51.134;16.980;2023-04-16T11:30:30;9.30;;;5.20;;
76848;SDS011;65814;51.134;16.980;2023-04-16T11:33:12;7.10;;;3.80;;
76848;SDS011;65814;51.134;16.980;2023-04-16T11:35:39;5.70;;;3.70;;
76848;SDS011;65814;51.134;16.980;2023-04-16T11:38:08;5.50;;;3.80;;
76848;SDS011;65814;51.134;16.980;2023-04-16T11:40:35;6.80;;;4.30;;
76848;SDS011;65814;51.134;16.980;2023-04-16T11:43:11;6.50;;;4.40;;
76848;SDS011;65814;51.134;16.980;2023-04-16T11:46:02;8.80;;;4.20;;
76848;SDS011;65814;51.134;16.980;2023-04-16T11:51:20;7.90;;;4.20;;
76848;SDS011;65814;51.134;16.980;2023-04-16T11:53:51;7.80;;;5.00;;
76848;SDS011;65814;51.134;16.980;2023-04-16T11:56:30;6.10;;;4.50;;
76848;SDS011;65814;51.134;16.980;2023-04-16T11:59:16;8.40;;;4.60;;
76848;SDS011;65814;51.134;16.980;2023-04-16T12:01:48;6.60;;;4.90;;
76848;SDS011;65814;51.134;16.980;2023-04-16T12:04:19;8.20;;;5.10;;
76848;SDS011;65814;51.134;16.980;2023-04-16T12:09:40;6.90;;;4.50;;
76848;SDS011;65814;51.134;16.980;2023-04-16T12:12:24;6.40;;;4.30;;
76848;SDS011;65814;51.134;16.980;2023-04-16T12:14:58;7.50;;;4.80;;
76848;SDS011;65814;51.134;16.980;2023-04-16T12:17:31;7.90;;;4.60;;
76848;SDS011;65814;51.134;16.980;2023-04-16T12:20:03;8.00;;;4.80;;
76848;SDS011;65814;51.134;16.980;2023-04-16T12:22:36;6.70;;;4.40;;
76848;SDS011;65814;51.134;16.980;2023-04-16T12:25:10;6.40;;;4.30;;
76848;SDS011;65814;51.134;16.980;2023-04-16T12:30:21;10.20;;;4.40;;
76848;SDS011;65814;51.134;16.980;2023-04-16T12:32:50;9.90;;;4.60;;
76848;SDS011;65814;51.134;16.980;2023-04-16T12:35:29;7.70;;;4.20;;
76848;SDS011;65814;51.134;16.980;2023-04-16T12:40:26;8.10;;;3.80;;
76848;SDS011;65814;51.134;16.980;2023-04-16T12:42:54;6.20;;;4.40;;
76848;SDS011;65814;51.134;16.980;2023-04-16T12:45:22;7.10;;;4.90;;
76848;SDS011;65814;51.134;16.980;2023-04-16T12:47:51;7.50;;;4.80;;
76848;SDS011;65814;51.134;16.980;2023-04-16T12:50:20;7.60;;;4.40;;
76848;SDS011;65814;51.134;16.980;2023-04-16T12:52:48;6.70;;;3.70;;
76848;SDS011;65814;51.134;16.980;2023-04-16T12:55:16;6.10;;;3.60;;
76848;SDS011;65814;51.134;16.980;2023-04-16T12:57:44;6.60;;;4.30;;
76848;SDS011;65814;51.134;16.980;2023-04-16T13:00:12;8.30;;;3.70;;
76848;SDS011;65814;51.134;16.980;2023-04-16T13:02:41;6.10;;;4.40;;
76848;SDS011;65814;51.134;16.980;2023-04-16T13:05:09;7.10;;;4.00;;
76848;SDS011;65814;51.134;16.980;2023-04-16T13:07:37;6.10;;;3.70;;
76848;SDS011;65814;51.134;16.980;2023-04-16T13:10:05;6.50;;;4.70;;
76848;SDS011;65814;51.134;16.980;2023-04-16T13:12:34;5.60;;;4.10;;
76848;SDS011;65814;51.134;16.980;2023-04-16T13:15:02;6.80;;;4.10;;
76848;SDS011;65814;51.134;16.980;2023-04-16T13:17:30;6.00;;;4.00;;
76848;SDS011;65814;51.134;16.980;2023-04-16T13:19:58;6.10;;;3.90;;
76848;SDS011;65814;51.134;16.980;2023-04-16T13:22:26;5.60;;;3.60;;
76848;SDS011;65814;51.134;16.980;2023-04-16T13:24:54;6.90;;;5.30;;
76848;SDS011;65814;51.134;16.980;2023-04-16T13:27:22;5.30;;;4.00;;
76848;SDS011;65814;51.134;16.980;2023-04-16T13:29:50;4.90;;;3.60;;
76848;SDS011;65814;51.134;16.980;2023-04-16T13:32:18;6.60;;;4.20;;
76848;SDS011;65814;51.134;16.980;2023-04-16T13:34:46;4.90;;;3.90;;
76848;SDS011;65814;51.134;16.980;2023-04-16T13:37:14;5.70;;;3.60;;
76848;SDS011;65814;51.134;16.980;2023-04-16T13:39:41;6.90;;;3.60;;
76848;SDS011;65814;51.134;16.980;2023-04-16T13:42:09;4.70;;;3.60;;
76848;SDS011;65814;51.134;16.980;2023-04-16T13:44:37;4.90;;;3.40;;
76848;SDS011;65814;51.134;16.980;2023-04-16T13:47:05;4.80;;;3.40;;
76848;SDS011;65814;51.134;16.980;2023-04-16T13:49:33;6.70;;;4.00;;
76848;SDS011;65814;51.134;16.980;2023-04-16T13:52:02;4.70;;;3.50;;
76848;SDS011;65814;51.134;16.980;2023-04-16T13:54:30;5.60;;;4.10;;
76848;SDS011;65814;51.134;16.980;2023-04-16T13:56:58;5.10;;;3.70;;
76848;SDS011;65814;51.134;16.980;2023-04-16T13:59:26;4.00;;;3.00;;
76848;SDS011;65814;51.134;16.980;2023-04-16T14:01:55;7.40;;;3.90;;
76848;SDS011;65814;51.134;16.980;2023-04-16T14:04:23;6.00;;;3.30;;
76848;SDS011;65814;51.134;16.980;2023-04-16T14:06:52;5.30;;;3.20;;
76848;SDS011;65814;51.134;16.980;2023-04-16T14:09:20;4.50;;;3.30;;
76848;SDS011;65814;51.134;16.980;2023-04-16T14:11:48;6.10;;;3.70;;
76848;SDS011;65814;51.134;16.980;2023-04-16T14:14:16;4.10;;;2.80;;
76848;SDS011;65814;51.134;16.980;2023-04-16T14:16:44;4.90;;;3.20;;
76848;SDS011;65814;51.134;16.980;2023-04-16T14:19:12;4.50;;;3.00;;
76848;SDS011;65814;51.134;16.980;2023-04-16T14:21:40;4.20;;;3.10;;
76848;SDS011;65814;51.134;16.980;2023-04-16T14:24:08;5.70;;;2.80;;
76848;SDS011;65814;51.134;16.980;2023-04-16T14:26:36;4.20;;;3.00;;
76848;SDS011;65814;51.134;16.980;2023-04-16T14:29:04;4.10;;;2.70;;
76848;SDS011;65814;51.134;16.980;2023-04-16T14:31:32;4.20;;;2.80;;
76848;SDS011;65814;51.134;16.980;2023-04-16T14:34:00;4.40;;;3.30;;
76848;SDS011;65814;51.134;16.980;2023-04-16T14:36:29;4.20;;;2.70;;
76848;SDS011;65814;51.134;16.980;2023-04-16T14:38:57;4.20;;;3.00;;